Time;durP1;ratioP1;P1;durP2;ratioP2;P2;SDS_P1;SDS_P2;PMS_P1;PMS_P2;Temp;Humidity;BMP_temperature;BMP_pressure;BME280_temperature;BME280_humidity;BME280_pressure;Samples;Min_cycle;Max_cycle;Signal;HPM_P1;HPM_P2
2023/08/07 00:02:36;;;;;;;3.72;0.43;;;;;;;21.61;55.40;100106.63;6256407;23;20023;-82
2023/08/07 00:05:31;;;;;;;2.10;0.40;;;;;;;21.53;55.91;100119.72;6256562;23;20019;-83
2023/08/07 00:08:25;;;;;;;1.50;0.70;;;;;;;21.55;55.84;100111.78;6255766;23;20351;-82
2023/08/07 00:11:20;;;;;;;1.58;0.30;;;;;;;21.54;56.77;100126.81;6256722;23;20023;-83
2023/08/07 00:14:14;;;;;;;1.63;0.50;;;;;;;21.47;56.71;100126.88;6257869;23;20023;-82
2023/08/07 00:17:09;;;;;;;2.45;0.68;;;;;;;21.34;56.84;100129.28;6258864;23;20031;-84
2023/08/07 00:20:01;;;;;;;1.95;0.50;;;;;;;21.20;57.87;100145.94;6258040;23;20039;-83
2023/08/07 00:22:55;;;;;;;2.60;0.70;;;;;;;21.15;57.95;100140.03;6257898;23;20027;-82
2023/08/07 00:25:50;;;;;;;1.63;0.60;;;;;;;21.06;58.32;100136.88;6257672;23;20031;-81
2023/08/07 00:28:45;;;;;;;1.60;0.60;;;;;;;21.04;58.53;100153.06;6257573;23;20079;-81
2023/08/07 00:31:39;;;;;;;1.20;0.50;;;;;;;21.00;58.78;100144.00;6257938;23;20470;-82
2023/08/07 00:34:31;;;;;;;2.05;0.47;;;;;;;21.16;58.59;100145.19;6234422;23;20038;-83
2023/08/07 00:37:23;;;;;;;2.13;1.23;;;;;;;21.16;58.12;100150.72;6234132;23;20019;-83
2023/08/07 00:40:13;;;;;;;5.07;0.68;;;;;;;21.32;57.42;100139.97;6233420;23;20022;-84
2023/08/07 00:43:07;;;;;;;2.10;0.57;;;;;;;21.11;57.97;100142.78;6255308;23;20023;-83
2023/08/07 00:46:02;;;;;;;3.88;0.47;;;;;;;21.18;57.48;100142.03;6255919;23;20023;-83
2023/08/07 00:48:58;;;;;;;1.00;0.45;;;;;;;21.01;58.05;100146.38;6255771;23;20031;-83
2023/08/07 00:51:53;;;;;;;4.22;0.70;;;;;;;21.07;57.44;100133.72;6233227;23;20485;-83
2023/08/07 00:54:46;;;;;;;;;;;;;;;21.08;57.68;100132.53;6256257;23;20019;-82
2023/08/07 00:57:38;;;;;;;1.25;0.32;;;;;;;21.10;57.58;100124.63;6233315;23;19908;-83
2023/08/07 01:00:34;;;;;;;1.60;0.60;;;;;;;20.90;57.96;100129.03;6255774;23;20023;-82
2023/08/07 01:03:28;;;;;;;1.60;0.50;;;;;;;21.12;57.82;100122.25;6233129;23;20019;-83
2023/08/07 01:06:18;;;;;;;3.80;0.73;;;;;;;21.09;57.66;100120.28;6254888;23;20019;-82
2023/08/07 01:09:13;;;;;;;0.88;0.45;;;;;;;21.25;58.15;100117.09;6255291;23;20020;-82
2023/08/07 01:12:09;;;;;;;;;;;;;;;21.32;57.27;100131.69;6233720;23;20023;-82
2023/08/07 01:15:20;;;;;;;2.08;0.90;;;;;;;21.21;58.04;100130.94;6254841;23;19908;-82
2023/08/07 01:18:15;;;;;;;8.35;0.70;;;;;;;21.26;57.04;100126.97;6255732;23;20034;-83
2023/08/07 01:21:07;;;;;;;;;;;;;;;21.12;58.36;100133.31;6256633;23;20027;-82
2023/08/07 01:24:02;;;;;;;0.63;0.50;;;;;;;21.02;58.77;100139.66;6254834;23;19907;-80
2023/08/07 01:26:59;;;;;;;1.15;0.73;;;;;;;20.91;59.03;100136.16;6233152;23;20027;-81
2023/08/07 01:30:06;;;;;;;2.80;1.00;;;;;;;20.79;59.33;100137.34;6232854;23;20027;-81
2023/08/07 01:33:24;;;;;;;0.88;0.70;;;;;;;20.87;57.78;100132.59;6233516;23;20038;-81
2023/08/07 01:36:22;;;;;;;3.22;0.85;;;;;;;20.72;58.10;100131.06;6232840;23;20482;-81
2023/08/07 01:39:14;;;;;;;5.13;0.47;;;;;;;20.54;58.70;100131.06;6249823;23;20035;-81
2023/08/07 01:42:10;;;;;;;1.13;0.47;;;;;;;20.46;59.14;100121.22;6254395;23;20027;-82
2023/08/07 01:45:06;;;;;;;1.15;0.57;;;;;;;20.43;59.64;100128.31;6255433;23;20023;-83
2023/08/07 01:48:01;;;;;;;3.97;0.40;;;;;;;20.44;59.47;100131.88;6232478;23;20035;-84
2023/08/07 01:50:53;;;;;;;;;;;;;;;20.58;59.71;100136.59;6255857;23;20019;-84
2023/08/07 01:53:47;;;;;;;2.70;0.80;;;;;;;20.64;59.47;100144.09;6255694;23;19907;-85
2023/08/07 01:56:42;;;;;;;0.82;0.28;;;;;;;20.85;60.92;100149.59;6255758;23;20509;-85
2023/08/07 01:59:36;;;;;;;1.27;0.30;;;;;;;21.12;59.21;100160.97;6254070;23;20019;-85
2023/08/07 02:02:31;;;;;;;0.98;0.40;;;;;;;21.05;58.52;100163.75;6232786;23;20023;-85
2023/08/07 02:05:25;;;;;;;1.42;0.75;;;;;;;20.97;59.15;100156.66;6233110;23;20019;-84
2023/08/07 02:08:20;;;;;;;1.45;0.43;;;;;;;20.89;58.98;100155.09;6232517;23;20023;-84
2023/08/07 02:11:14;;;;;;;4.43;0.88;;;;;;;20.70;59.60;100153.56;6232796;23;20490;-84
2023/08/07 02:14:09;;;;;;;1.05;0.30;;;;;;;20.60;59.76;100167.38;6232539;23;20023;-85
2023/08/07 02:17:03;;;;;;;0.80;0.32;;;;;;;20.53;60.23;100167.38;6254301;23;20023;-85
2023/08/07 02:19:58;;;;;;;5.88;0.50;;;;;;;20.55;60.34;100174.09;6232083;23;20023;-83
2023/08/07 02:22:52;;;;;;;4.43;0.65;;;;;;;20.54;59.69;100152.38;6232782;23;20343;-84
2023/08/07 02:25:47;;;;;;;2.97;1.00;;;;;;;20.60;59.78;100161.84;6255251;23;20019;-84
2023/08/07 02:28:41;;;;;;;0.60;0.52;;;;;;;20.62;59.90;100170.56;6232138;23;20039;-84
2023/08/07 02:31:36;;;;;;;2.47;0.63;;;;;;;20.70;59.99;100170.13;6255332;23;20019;-84
2023/08/07 02:34:31;;;;;;;3.20;0.77;;;;;;;20.68;59.72;100168.94;6232665;23;20023;-85
2023/08/07 02:37:23;;;;;;;4.22;0.80;;;;;;;20.58;60.09;100161.44;6254106;23;20019;-85
2023/08/07 02:40:17;;;;;;;1.20;0.50;;;;;;;20.53;60.87;100157.13;6245251;23;20026;-85
2023/08/07 02:43:09;;;;;;;2.13;0.57;;;;;;;20.54;60.22;100158.69;6255072;23;20043;-85
2023/08/07 02:46:03;;;;;;;3.10;0.85;;;;;;;20.38;61.18;100155.53;6255287;23;20027;-84
2023/08/07 02:48:58;;;;;;;3.95;0.73;;;;;;;20.55;61.33;100160.28;6232254;23;20023;-85
2023/08/07 02:51:52;;;;;;;1.52;0.70;;;;;;;21.16;60.03;100158.22;6255273;23;20355;-84
2023/08/07 02:54:47;;;;;;;1.02;0.40;;;;;;;21.73;58.24;100142.16;6233225;23;20026;-83
2023/08/07 02:57:39;;;;;;;1.38;0.60;;;;;;;21.96;57.72;100139.63;6255417;23;20347;-83
2023/08/07 03:00:37;;;;;;;2.75;0.60;;;;;;;21.94;57.25;100128.19;6233854;23;20486;-85
2023/08/07 03:03:29;;;;;;;1.02;0.35;;;;;;;22.24;56.64;100124.81;6233889;23;20019;-84
2023/08/07 03:06:21;;;;;;;6.90;0.60;;;;;;;22.60;55.78;100128.03;6233215;23;20745;-81
2023/08/07 03:09:15;;;;;;;0.77;0.32;;;;;;;22.71;55.08;100123.19;6251238;23;20362;-79
2023/08/07 03:12:10;;;;;;;1.95;0.50;;;;;;;22.64;55.17;100126.03;6255708;23;20019;-81
2023/08/07 03:15:04;;;;;;;1.80;0.82;;;;;;;22.76;54.80;100122.72;6254902;23;20478;-80
2023/08/07 03:17:59;;;;;;;1.80;0.60;;;;;;;22.72;54.33;100129.53;6253152;23;20019;-80
2023/08/07 03:20:53;;;;;;;4.25;0.80;;;;;;;22.43;54.83;100120.66;6255793;23;20023;-81
2023/08/07 03:23:48;;;;;;;1.90;0.57;;;;;;;22.15;55.29;100121.69;6256060;23;20052;-80
2023/08/07 03:26:40;;;;;;;2.28;0.60;;;;;;;22.33;55.42;100127.88;6233371;23;20023;-81
2023/08/07 03:29:34;;;;;;;1.83;0.60;;;;;;;22.41;55.64;100131.38;6255447;23;20024;-81
2023/08/07 03:32:29;;;;;;;1.85;0.60;;;;;;;22.41;54.18;100136.91;6234295;23;20023;-81
2023/08/07 03:35:24;;;;;;;4.85;0.40;;;;;;;22.01;55.66;100130.13;6235191;23;20027;-81
2023/08/07 03:38:18;;;;;;;6.70;1.05;;;;;;;21.82;56.36;100136.16;6234452;23;20019;-80
2023/08/07 03:41:16;;;;;;;2.55;0.80;;;;;;;21.81;55.81;100151.97;6234892;23;20351;-83
2023/08/07 03:44:11;;;;;;;1.88;0.70;;;;;;;21.51;55.95;100154.50;6233898;23;20486;-82
2023/08/07 03:47:03;;;;;;;3.00;0.57;;;;;;;21.36;55.99;100170.38;6231897;23;20023;-82
2023/08/07 03:49:58;;;;;;;2.63;1.05;;;;;;;20.84;57.20;100177.59;6232576;23;20024;-82
2023/08/07 03:52:53;;;;;;;4.53;0.63;;;;;;;20.59;58.03;100172.13;6233834;23;20568;-79
2023/08/07 03:55:45;;;;;;;1.67;0.60;;;;;;;20.57;59.21;100159.91;6255562;23;20023;-79
2023/08/07 03:58:40;;;;;;;8.00;1.15;;;;;;;20.51;56.79;100165.03;6233658;23;20103;-79
2023/08/07 04:01:34;;;;;;;3.58;0.75;;;;;;;20.28;55.95;100170.91;6256230;23;20023;-79
2023/08/07 04:04:26;;;;;;;2.53;0.55;;;;;;;20.31;56.44;100174.91;6257524;23;20362;-79
2023/08/07 04:07:21;;;;;;;4.55;0.77;;;;;;;20.38;57.31;100177.63;6234606;23;20354;-79
2023/08/07 04:10:13;;;;;;;3.60;0.70;;;;;;;20.41;55.44;100183.19;6234063;23;20355;-79
2023/08/07 04:13:07;;;;;;;1.42;0.68;;;;;;;20.35;55.59;100184.75;6257027;23;20343;-79
2023/08/07 04:16:05;;;;;;;4.82;1.10;;;;;;;20.34;55.77;100176.84;6256928;23;20466;-79
2023/08/07 04:19:00;;;;;;;7.70;0.70;;;;;;;20.19;56.72;100189.84;6251885;23;20027;-79
2023/08/07 04:21:54;;;;;;;4.20;0.50;;;;;;;20.23;56.77;100184.31;6234170;23;20023;-82
2023/08/07 04:24:47;;;;;;;;;;;;;;;20.11;57.20;100181.94;6255757;23;20043;-83
2023/08/07 04:27:41;;;;;;;2.42;0.68;;;;;;;19.85;57.72;100188.59;6233846;23;19907;-84
2023/08/07 04:30:36;;;;;;;1.13;0.70;;;;;;;19.69;57.78;100179.88;6233687;23;20023;-83
2023/08/07 04:33:28;;;;;;;3.88;0.75;;;;;;;19.47;58.93;100184.53;6256350;23;20039;-83
2023/08/07 04:36:23;;;;;;;1.58;0.75;;;;;;;19.39;58.44;100182.91;6256020;23;20019;-83
2023/08/07 04:39:17;;;;;;;3.28;1.08;;;;;;;19.16;58.65;100185.91;6255973;23;20019;-83
2023/08/07 04:42:12;;;;;;;4.30;1.20;;;;;;;19.17;58.36;100190.25;6255957;23;20071;-82
2023/08/07 04:45:06;;;;;;;2.30;0.63;;;;;;;19.18;59.46;100178.84;6255650;23;20621;-79
2023/08/07 04:47:56;;;;;;;4.55;1.30;;;;;;;19.21;58.60;100191.06;6255707;23;20023;-83
2023/08/07 04:50:51;;;;;;;1.55;0.45;;;;;;;19.20;59.45;100193.03;6256005;23;20095;-83
2023/08/07 04:53:45;;;;;;;0.95;0.40;;;;;;;19.44;55.07;100191.63;6256114;23;20039;-81
2023/08/07 04:56:40;;;;;;;2.10;0.45;;;;;;;19.68;58.46;100198.41;6256089;23;20027;-82
2023/08/07 04:59:32;;;;;;;23.92;2.05;;;;;;;20.83;56.92;100206.44;6256118;23;20016;-86
2023/08/07 05:02:26;;;;;;;16.63;1.27;;;;;;;20.74;50.37;100208.81;6256938;23;20016;-83
2023/08/07 05:05:24;;;;;;;1.10;0.47;;;;;;;20.29;48.24;100208.38;6255390;23;20016;-83
2023/08/07 05:08:18;;;;;;;1.38;0.70;;;;;;;20.11;46.96;100202.06;6254924;23;20359;-83
2023/08/07 05:11:13;;;;;;;4.43;0.47;;;;;;;20.57;52.95;100210.38;6255604;23;20023;-81
2023/08/07 05:14:05;;;;;;;4.03;1.42;;;;;;;20.66;48.78;100207.25;6256062;23;20027;-83
2023/08/07 05:17:00;;;;;;;2.25;0.30;;;;;;;20.72;50.08;100209.22;6255906;23;20023;-82
2023/08/07 05:19:52;;;;;;;4.47;0.43;;;;;;;20.78;48.46;100212.34;6255169;23;20039;-83
2023/08/07 05:22:46;;;;;;;0.65;0.38;;;;;;;20.92;48.02;100213.16;6255841;23;20020;-82
2023/08/07 05:25:41;;;;;;;2.00;0.90;;;;;;;21.33;48.76;100221.00;6255503;23;20023;-83
2023/08/07 05:28:35;;;;;;;2.97;0.52;;;;;;;21.10;46.11;100215.88;6255041;23;20043;-83
2023/08/07 05:31:30;;;;;;;4.18;1.00;;;;;;;21.41;46.74;100227.28;6255847;23;20027;-82
2023/08/07 05:34:25;;;;;;;11.95;1.23;;;;;;;21.82;47.79;100231.06;6255149;23;20071;-84
2023/08/07 05:37:19;;;;;;;3.53;0.50;;;;;;;21.81;46.34;100226.72;6255505;23;20053;-84
2023/08/07 05:40:14;;;;;;;3.70;0.52;;;;;;;21.99;47.37;100232.97;6255518;23;20015;-84
2023/08/07 05:43:08;;;;;;;1.38;0.60;;;;;;;22.23;43.55;100222.16;6255075;23;20039;-83
2023/08/07 05:46:00;;;;;;;0.85;0.55;;;;;;;22.42;45.63;100224.38;6255393;23;20027;-82
2023/08/07 05:48:55;;;;;;;4.43;0.80;;;;;;;22.44;43.44;100233.88;6255378;23;20348;-80
2023/08/07 05:51:50;;;;;;;1.27;0.60;;;;;;;22.41;44.18;100234.69;6256836;23;20023;-86
2023/08/07 05:54:42;;;;;;;4.32;0.30;;;;;;;22.40;43.91;100229.56;6255939;23;20477;-87
2023/08/07 05:57:36;;;;;;;2.08;0.70;;;;;;;22.52;41.91;100229.06;6256561;23;20019;-87
2023/08/07 06:00:28;;;;;;;3.50;0.63;;;;;;;22.32;39.55;100236.34;6256744;23;20046;-88
2023/08/07 06:03:23;;;;;;;10.50;0.55;;;;;;;22.32;40.24;100241.88;6256074;23;20023;-88
2023/08/07 06:06:15;;;;;;;0.82;0.57;;;;;;;22.23;40.59;100244.31;6256152;23;20493;-91
2023/08/07 06:09:09;;;;;;;1.58;0.38;;;;;;;22.36;42.20;100256.50;6254886;23;20043;-88
2023/08/07 06:12:04;;;;;;;0.85;0.40;;;;;;;22.36;41.04;100253.72;6256986;23;20023;-89
2023/08/07 06:14:56;;;;;;;1.58;0.50;;;;;;;22.21;39.78;100255.78;6255683;23;20022;-80
2023/08/07 06:17:51;;;;;;;2.38;0.82;;;;;;;22.05;39.50;100255.47;6235461;23;20854;-87
2023/08/07 06:20:45;;;;;;;2.10;0.60;;;;;;;22.14;40.55;100247.53;6255203;23;20355;-84
2023/08/07 06:23:40;;;;;;;2.97;0.73;;;;;;;22.23;40.30;100252.63;6256679;23;20335;-88
2023/08/07 06:26:34;;;;;;;2.58;0.40;;;;;;;22.43;39.69;100248.94;6256499;23;20023;-89
2023/08/07 06:29:24;;;;;;;2.65;0.70;;;;;;;22.53;40.32;100247.28;6255409;23;20019;-88
2023/08/07 06:32:18;;;;;;;2.47;0.32;;;;;;;21.55;40.08;100258.44;6255909;23;20027;-82
2023/08/07 06:35:12;;;;;;;1.98;0.35;;;;;;;21.75;39.17;100256.00;6255137;23;20027;-84
2023/08/07 06:38:05;;;;;;;6.75;0.50;;;;;;;22.09;39.48;100257.06;6254660;23;20363;-81
2023/08/07 06:40:57;;;;;;;2.40;0.50;;;;;;;22.39;38.86;100253.72;6254867;23;20023;-79
2023/08/07 06:43:51;;;;;;;0.90;0.43;;;;;;;22.76;38.49;100255.81;6255063;23;20023;-81
2023/08/07 06:46:46;;;;;;;2.00;1.02;;;;;;;23.36;38.87;100265.56;6254918;23;20027;-81
2023/08/07 06:49:41;;;;;;;0.88;0.20;;;;;;;23.57;35.49;100264.56;6254347;23;20055;-82
2023/08/07 06:52:35;;;;;;;0.40;0.30;;;;;;;24.07;37.17;100268.31;6254402;23;20023;-81
2023/08/07 06:55:30;;;;;;;8.48;0.55;;;;;;;24.74;36.13;100277.63;6254445;23;20019;-81
2023/08/07 06:58:17;;;;;;;2.88;0.63;;;;;;;24.66;33.60;100276.97;6254361;23;20022;-81
2023/08/07 07:01:09;;;;;;;5.97;0.40;;;;;;;25.07;34.26;100270.34;6254964;23;20019;-82
2023/08/07 07:03:58;;;;;;;1.23;0.50;;;;;;;25.55;33.67;100279.00;6254756;23;20039;-83
2023/08/07 07:06:53;;;;;;;3.35;0.60;;;;;;;25.82;33.32;100278.88;6254425;23;20474;-82
2023/08/07 07:09:47;;;;;;;4.10;0.60;;;;;;;27.07;32.28;100276.84;6254527;23;20043;-83
2023/08/07 07:12:42;;;;;;;184.57;41.30;;;;;;;27.02;31.49;100280.91;6255331;23;20027;-79
2023/08/07 07:15:36;;;;;;;23.55;6.43;;;;;;;26.41;32.82;100289.19;6255266;23;20016;-84
2023/08/07 07:18:31;;;;;;;16.20;4.03;;;;;;;28.88;29.53;100284.28;6254949;23;20016;-88
2023/08/07 07:21:21;;;;;;;;;;;;;;;31.23;25.06;100301.47;6256294;23;20047;-88
2023/08/07 07:24:13;;;;;;;4.20;0.73;;;;;;;33.60;21.19;100306.25;6255564;23;20231;-88
2023/08/07 07:27:07;;;;;;;10.48;1.05;;;;;;;35.64;19.50;100304.25;6255921;23;20027;-88
2023/08/07 07:30:00;;;;;;;;;;;;;;;36.21;18.60;100306.41;6255711;23;20020;-88
2023/08/07 07:32:54;;;;;;;4.90;0.80;;;;;;;35.96;19.06;100313.63;6256273;23;19990;-88
2023/08/07 07:35:46;;;;;;;;;;;;;;;35.76;19.48;100310.84;6256108;23;20027;-88
2023/08/07 07:38:40;;;;;;;8.65;1.33;;;;;;;31.22;24.45;100309.09;6255535;23;19911;-86
2023/08/07 07:41:35;;;;;;;10.88;0.88;;;;;;;29.84;28.79;100310.97;6255577;23;20466;-87
2023/08/07 07:44:29;;;;;;;6.70;1.00;;;;;;;35.50;21.65;100322.91;6255531;23;20481;-87
2023/08/07 07:47:22;;;;;;;;;;;;;;;32.55;24.09;100308.31;6256224;23;20023;-86
2023/08/07 07:50:14;;;;;;;8.27;0.55;;;;;;;28.88;29.24;100315.09;6255406;23;20327;-86
2023/08/07 07:53:06;;;;;;;8.68;0.90;;;;;;;28.20;31.12;100312.81;6256218;23;20023;-86
2023/08/07 07:56:00;;;;;;;1.35;0.20;;;;;;;26.74;29.52;100318.66;6257001;23;20023;-88
2023/08/07 07:58:52;;;;;;;;;;;;;;;27.61;28.22;100307.72;6256671;23;20625;-85
2023/08/07 08:01:45;;;;;;;3.72;0.43;;;;;;;35.05;18.31;100320.75;6255395;23;19907;-84
2023/08/07 08:04:39;;;;;;;8.45;0.50;;;;;;;39.04;16.41;100325.56;6254245;23;20023;-85
2023/08/07 08:07:34;;;;;;;3.20;0.47;;;;;;;39.62;15.16;100329.22;6254444;23;20489;-84
2023/08/07 08:10:26;;;;;;;9.23;0.50;;;;;;;40.79;14.63;100336.91;6254549;23;20042;-85
2023/08/07 08:13:20;;;;;;;5.47;0.70;;;;;;;42.95;14.40;100341.50;6254992;23;20470;-84
2023/08/07 08:16:15;;;;;;;5.55;0.43;;;;;;;43.02;13.79;100335.13;6254797;23;20075;-84
2023/08/07 08:19:09;;;;;;;1.30;0.20;;;;;;;42.52;11.72;100335.28;6232764;23;20019;-85
2023/08/07 08:21:59;;;;;;;3.10;0.40;;;;;;;42.01;11.83;100338.19;6256642;23;20023;-83
2023/08/07 08:24:55;;;;;;;4.38;1.08;;;;;;;43.39;12.93;100350.53;6257278;23;20039;-84
2023/08/07 08:27:49;;;;;;;3.28;0.40;;;;;;;44.24;12.64;100359.56;6256852;23;20619;-85
2023/08/07 08:30:44;;;;;;;7.45;0.95;;;;;;;45.95;10.94;100356.03;6256808;23;20343;-86
2023/08/07 08:33:36;;;;;;;2.95;0.45;;;;;;;45.76;11.25;100361.34;6257163;23;20482;-87
2023/08/07 08:36:28;;;;;;;6.70;0.57;;;;;;;45.09;12.30;100362.56;6257528;23;20023;-88
2023/08/07 08:39:22;;;;;;;5.38;0.60;;;;;;;47.25;10.67;100364.63;6234942;23;20026;-87
2023/08/07 08:42:17;;;;;;;0.68;0.25;;;;;;;46.57;10.80;100363.44;6258459;23;20035;-87
2023/08/07 08:45:10;;;;;;;3.90;0.85;;;;;;;46.59;10.40;100362.81;6258481;23;20042;-88
2023/08/07 08:48:06;;;;;;;4.57;0.73;;;;;;;47.28;9.45;100361.41;6258273;23;20023;-90
2023/08/07 08:51:01;;;;;;;2.42;0.55;;;;;;;47.86;9.17;100363.03;6259318;23;20019;-89
2023/08/07 08:53:53;;;;;;;3.10;0.43;;;;;;;41.82;13.07;100360.28;6259268;23;20351;-88
2023/08/07 08:56:48;;;;;;;1.63;0.45;;;;;;;34.29;21.00;100343.22;6260381;23;20027;-86
2023/08/07 08:59:42;;;;;;;7.88;0.65;;;;;;;30.87;24.69;100336.63;6258510;23;20019;-85
2023/08/07 09:02:37;;;;;;;3.42;0.40;;;;;;;29.11;27.03;100332.72;6257527;23;20027;-85
2023/08/07 09:05:31;;;;;;;0.77;0.40;;;;;;;27.24;29.96;100335.00;6257323;23;20023;-83
2023/08/07 09:08:28;;;;;;;4.20;0.60;;;;;;;26.54;31.00;100331.09;6256573;23;20347;-84
2023/08/07 09:11:21;;;;;;;3.67;0.82;;;;;;;26.32;30.73;100330.78;6256626;23;20031;-84
2023/08/07 09:14:17;;;;;;;2.67;0.30;;;;;;;26.69;29.85;100338.72;6256749;23;20031;-83
2023/08/07 09:17:10;;;;;;;0.28;0.20;;;;;;;26.70;29.82;100328.34;6256454;23;20371;-84
2023/08/07 09:20:04;;;;;;;1.10;0.22;;;;;;;26.57;28.51;100344.16;6256219;23;20462;-84
2023/08/07 09:22:56;;;;;;;1.10;0.50;;;;;;;26.31;30.66;100332.78;6256520;23;20042;-83
2023/08/07 09:26:00;;;;;;;1.75;0.20;;;;;;;26.22;31.55;100335.38;6256196;23;20019;-85
2023/08/07 09:28:55;;;;;;;6.80;1.00;;;;;;;26.19;30.37;100330.66;6256021;23;20023;-86
2023/08/07 09:31:50;;;;;;;0.63;0.30;;;;;;;26.53;30.23;100335.09;6256237;23;20019;-85
2023/08/07 09:34:44;;;;;;;0.73;0.30;;;;;;;26.32;30.92;100336.38;6256193;23;20075;-86
2023/08/07 09:37:40;;;;;;;0.80;0.30;;;;;;;26.07;32.02;100352.81;6256171;23;20019;-85
2023/08/07 09:40:33;;;;;;;0.50;0.30;;;;;;;26.02;32.11;100345.75;6255851;23;20469;-85
2023/08/07 09:43:26;;;;;;;1.27;0.55;;;;;;;25.87;32.96;100352.81;6256447;23;20026;-84
2023/08/07 09:46:22;;;;;;;0.32;0.17;;;;;;;25.76;31.43;100346.66;6255659;23;20042;-86
2023/08/07 09:49:16;;;;;;;3.25;0.50;;;;;;;25.60;33.42;100352.16;6254353;23;20023;-84
2023/08/07 09:52:10;;;;;;;2.10;0.73;;;;;;;25.36;33.70;100343.00;6253325;23;20059;-81
2023/08/07 09:55:05;;;;;;;31.23;7.30;;;;;;;25.64;32.94;100344.53;6254800;23;20466;-81
2023/08/07 09:57:59;;;;;;;;;;;;;;;25.74;32.18;100351.88;6255776;23;20023;-83
2023/08/07 10:00:59;;;;;;;109.75;30.15;;;;;;;25.85;31.84;100358.03;6256373;23;19907;-83
2023/08/07 10:03:53;;;;;;;99.55;30.75;;;;;;;25.72;31.73;100348.72;6256680;23;20016;-85
2023/08/07 10:06:46;;;;;;;77.53;20.13;;;;;;;25.50;33.31;100345.53;6256953;23;20016;-87
2023/08/07 10:09:38;;;;;;;39.53;12.25;;;;;;;25.65;32.57;100346.84;6256871;23;20016;-85
2023/08/07 10:12:33;;;;;;;22.42;4.60;;;;;;;25.97;29.51;100354.59;6256970;23;20041;-85
2023/08/07 10:15:26;;;;;;;18.98;5.63;;;;;;;26.06;32.01;100352.03;6257028;23;20016;-86
2023/08/07 10:18:18;;;;;;;14.00;4.30;;;;;;;26.19;30.53;100352.16;6256216;23;20027;-85
2023/08/07 10:21:09;;;;;;;9.27;1.77;;;;;;;26.56;25.80;100356.56;6257183;23;20019;-85
2023/08/07 10:24:05;;;;;;;7.20;1.55;;;;;;;26.76;26.39;100346.13;6256646;23;20043;-86
2023/08/07 10:26:56;;;;;;;4.10;1.30;;;;;;;26.92;28.03;100345.41;6258663;23;20019;-84
2023/08/07 10:29:52;;;;;;;1.60;0.73;;;;;;;27.06;25.89;100343.03;6256961;23;20031;-85
2023/08/07 10:32:48;;;;;;;7.55;2.08;;;;;;;27.05;29.22;100341.47;6257747;23;20026;-86
2023/08/07 10:35:51;;;;;;;6.50;1.90;;;;;;;26.73;30.83;100353.34;6257668;23;20027;-84
2023/08/07 10:38:46;;;;;;;4.32;1.00;;;;;;;26.38;30.37;100340.22;6257263;23;20023;-84
2023/08/07 10:41:48;;;;;;;5.15;1.13;;;;;;;26.47;27.75;100346.00;6255407;23;20019;-84
2023/08/07 10:44:53;;;;;;;10.23;1.60;;;;;;;26.35;30.29;100346.69;6255844;23;20019;-84
2023/08/07 10:47:58;;;;;;;1.25;0.50;;;;;;;26.18;26.74;100348.59;6255939;23;20019;-81
2023/08/07 10:51:00;;;;;;;0.50;0.30;;;;;;;26.74;26.43;100354.16;6256548;23;20023;-84
2023/08/07 10:53:55;;;;;;;0.50;0.32;;;;;;;27.18;24.18;100345.13;6256484;23;20019;-83
2023/08/07 10:56:59;;;;;;;0.63;0.32;;;;;;;27.32;24.96;100349.56;6255274;23;20019;-83
2023/08/07 11:00:05;;;;;;;1.40;0.65;;;;;;;26.93;28.95;100347.72;6254473;23;20015;-84
2023/08/07 11:03:02;;;;;;;2.65;0.50;;;;;;;27.01;27.84;100348.38;6256851;23;20023;-83
2023/08/07 11:05:54;;;;;;;0.90;0.30;;;;;;;26.85;29.58;100348.31;6255285;23;20366;-84
2023/08/07 11:08:50;;;;;;;1.58;0.30;;;;;;;26.47;30.12;100340.41;6254275;23;20042;-85
2023/08/07 11:11:43;;;;;;;1.35;0.20;;;;;;;26.10;30.44;100340.81;6256471;23;20486;-84
2023/08/07 11:14:38;;;;;;;3.60;0.30;;;;;;;26.13;31.31;100343.53;6256440;23;20358;-84
2023/08/07 11:17:31;;;;;;;1.80;0.30;;;;;;;26.09;31.09;100334.44;6256786;23;20027;-84
2023/08/07 11:20:27;;;;;;;0.60;0.20;;;;;;;26.14;29.56;100333.94;6256125;23;20023;-85
2023/08/07 11:23:27;;;;;;;18.40;1.52;;;;;;;26.16;31.23;100334.28;6257230;23;20018;-83
2023/08/07 11:26:16;;;;;;;2.75;0.45;;;;;;;25.89;30.82;100326.09;6256303;23;20023;-84
2023/08/07 11:29:10;;;;;;;1.27;0.43;;;;;;;25.95;30.59;100334.75;6257013;23;20023;-83
2023/08/07 11:32:02;;;;;;;0.95;0.25;;;;;;;26.00;30.43;100328.69;6256218;23;20057;-83
2023/08/07 11:34:57;;;;;;;0.88;0.25;;;;;;;26.14;29.15;100325.59;6256836;23;20343;-80
2023/08/07 11:37:55;;;;;;;11.15;0.85;;;;;;;26.43;29.14;100325.78;6255178;23;20031;-81
2023/08/07 11:40:49;;;;;;;0.73;0.20;;;;;;;26.95;23.76;100322.97;6259436;23;20016;-81
2023/08/07 11:43:42;;;;;;;0.77;0.20;;;;;;;26.66;26.96;100322.06;6255626;23;20076;-81
2023/08/07 11:46:34;;;;;;;4.03;0.30;;;;;;;35.28;18.10;100345.25;6255992;23;20351;-88
2023/08/07 11:49:22;;;;;;;0.10;0.10;;;;;;;39.12;13.52;100332.25;6255425;23;20493;-89
2023/08/07 11:52:16;;;;;;;0.63;0.20;;;;;;;36.26;13.19;100343.28;6254844;23;20050;-82
2023/08/07 11:55:09;;;;;;;0.82;0.40;;;;;;;41.40;10.61;100348.38;6257584;23;20023;-82
2023/08/07 11:58:05;;;;;;;1.02;0.20;;;;;;;44.29;9.89;100361.53;6256185;23;20351;-80
2023/08/07 12:00:57;;;;;;;3.78;0.60;;;;;;;46.35;8.76;100367.03;6257501;23;20016;-84
2023/08/07 12:04:08;;;;;;;1.95;0.15;;;;;;;46.40;8.63;100371.84;6257154;23;20470;-86
2023/08/07 12:07:02;;;;;;;1.90;0.20;;;;;;;46.35;8.34;100370.69;6257486;23;20347;-83
2023/08/07 12:09:54;;;;;;;4.47;0.30;;;;;;;45.91;8.92;100372.91;6256822;23;20042;-82
2023/08/07 12:12:49;;;;;;;3.08;0.55;;;;;;;40.25;10.67;100360.44;6258381;23;20490;-83
2023/08/07 12:15:44;;;;;;;39.75;8.98;;;;;;;35.43;14.24;100351.59;6259549;23;20111;-83
2023/08/07 12:18:38;;;;;;;143.77;35.25;;;;;;;31.68;18.87;100352.09;6258359;23;20027;-83
2023/08/07 12:21:33;;;;;;;33.97;8.70;;;;;;;31.38;17.83;100350.97;6259408;23;20012;-84
2023/08/07 12:24:25;;;;;;;18.63;4.40;;;;;;;31.26;17.34;100345.47;6258670;23;20020;-83
2023/08/07 12:27:19;;;;;;;11.52;0.70;;;;;;;31.49;16.71;100346.91;6257656;23;20028;-83
2023/08/07 12:30:15;;;;;;;31.40;8.48;;;;;;;31.00;18.95;100342.91;6258241;23;20019;-83
2023/08/07 12:33:07;;;;;;;16.60;4.72;;;;;;;30.33;19.53;100336.38;6256661;23;20497;-83
2023/08/07 12:36:02;;;;;;;18.98;3.85;;;;;;;30.23;19.75;100341.16;6256310;23;20016;-83
2023/08/07 12:38:54;;;;;;;13.82;3.90;;;;;;;29.49;20.79;100327.84;6256017;23;20481;-83
2023/08/07 12:41:48;;;;;;;14.75;3.90;;;;;;;28.71;23.11;100333.19;6256118;23;20049;-82
2023/08/07 12:44:43;;;;;;;9.30;2.80;;;;;;;28.54;23.35;100333.78;6256263;23;20012;-82
2023/08/07 12:47:32;;;;;;;;;;;;;;;28.95;22.34;100335.69;6256528;23;20030;-83
2023/08/07 12:50:26;;;;;;;9.70;1.92;;;;;;;28.79;22.48;100328.97;6256313;23;19911;-83
2023/08/07 12:53:21;;;;;;;15.27;3.70;;;;;;;28.25;24.82;100322.66;6256222;23;20019;-84
2023/08/07 12:56:16;;;;;;;11.55;3.35;;;;;;;28.42;24.06;100332.53;6255964;23;20023;-83
2023/08/07 12:59:08;;;;;;;;;;;;;;;28.08;23.88;100325.53;6255775;23;20019;-82
2023/08/07 13:02:00;;;;;;;7.82;1.40;;;;;;;27.75;24.45;100329.66;6256186;23;19908;-83
2023/08/07 13:04:54;;;;;;;1.83;0.50;;;;;;;28.44;21.25;100330.06;6255652;22;20026;-83
2023/08/07 13:07:44;;;;;;;3.20;0.28;;;;;;;28.74;20.91;100329.53;6256089;23;20023;-83
2023/08/07 13:10:39;;;;;;;1.98;0.65;;;;;;;28.52;23.04;100333.41;6255923;23;20023;-82
2023/08/07 13:13:31;;;;;;;2.78;0.47;;;;;;;28.27;23.13;100332.19;6256095;23;20027;-83
2023/08/07 13:16:25;;;;;;;2.95;0.70;;;;;;;27.91;24.14;100329.59;6255840;23;20023;-82
2023/08/07 13:19:17;;;;;;;;;;;;;;;27.60;24.86;100334.06;6255607;23;20027;-83
2023/08/07 13:22:13;;;;;;;0.75;0.28;;;;;;;27.70;24.36;100335.78;6246060;23;20247;-83
2023/08/07 13:25:09;;;;;;;2.45;0.30;;;;;;;27.79;24.20;100335.94;6255913;23;20027;-83
2023/08/07 13:27:58;;;;;;;1.13;0.38;;;;;;;28.16;21.47;100345.69;6255623;23;20351;-82
2023/08/07 13:30:53;;;;;;;1.67;0.32;;;;;;;28.07;22.82;100346.31;6255749;23;20023;-82
2023/08/07 13:33:48;;;;;;;7.22;1.10;;;;;;;27.82;22.45;100346.25;6255579;23;20019;-82